sensor_id;sensor_type;location;lat;lon;timestamp;P1;durP1;ratioP1;P2;durP2;ratioP2
8279;SDS011;8335;42.646;23.380;2022-09-03T00:01:07;8.77;;;6.53;;
8279;SDS011;8335;42.646;23.380;2022-09-03T00:03:42;9.47;;;6.37;;
8279;SDS011;8335;42.646;23.380;2022-09-03T00:06:13;8.98;;;6.00;;
8279;SDS011;8335;42.646;23.380;2022-09-03T00:08:43;7.68;;;6.28;;
8279;SDS011;8335;42.646;23.380;2022-09-03T00:11:17;8.90;;;6.50;;
8279;SDS011;8335;42.646;23.380;2022-09-03T00:13:47;7.43;;;6.03;;
8279;SDS011;8335;42.646;23.380;2022-09-03T00:16:21;8.00;;;5.93;;
8279;SDS011;8335;42.646;23.380;2022-09-03T00:18:53;8.67;;;5.87;;
8279;SDS011;8335;42.646;23.380;2022-09-03T00:21:27;8.33;;;5.90;;
8279;SDS011;8335;42.646;23.380;2022-09-03T00:23:59;9.23;;;6.57;;
8279;SDS011;8335;42.646;23.380;2022-09-03T00:26:32;7.77;;;6.43;;
8279;SDS011;8335;42.646;23.380;2022-09-03T00:29:01;9.50;;;6.10;;
8279;SDS011;8335;42.646;23.380;2022-09-03T00:31:33;8.77;;;6.27;;
8279;SDS011;8335;42.646;23.380;2022-09-03T00:34:04;8.60;;;6.70;;
8279;SDS011;8335;42.646;23.380;2022-09-03T00:36:36;8.38;;;6.18;;
8279;SDS011;8335;42.646;23.380;2022-09-03T00:39:10;10.10;;;6.37;;
8279;SDS011;8335;42.646;23.380;2022-09-03T00:41:43;11.90;;;5.87;;
8279;SDS011;8335;42.646;23.380;2022-09-03T00:47:12;9.57;;;6.15;;
8279;SDS011;8335;42.646;23.380;2022-09-03T00:49:46;8.40;;;6.07;;
8279;SDS011;8335;42.646;23.380;2022-09-03T00:52:26;9.30;;;6.30;;
8279;SDS011;8335;42.646;23.380;2022-09-03T00:55:06;12.23;;;7.20;;
8279;SDS011;8335;42.646;23.380;2022-09-03T00:57:46;9.57;;;6.80;;
8279;SDS011;8335;42.646;23.380;2022-09-03T01:00:21;9.63;;;6.83;;
8279;SDS011;8335;42.646;23.380;2022-09-03T01:02:51;8.70;;;7.10;;
8279;SDS011;8335;42.646;23.380;2022-09-03T01:05:31;9.60;;;6.30;;
8279;SDS011;8335;42.646;23.380;2022-09-03T01:08:11;12.13;;;6.80;;
8279;SDS011;8335;42.646;23.380;2022-09-03T01:10:57;10.83;;;7.37;;
8279;SDS011;8335;42.646;23.380;2022-09-03T01:13:37;11.80;;;7.30;;
8279;SDS011;8335;42.646;23.380;2022-09-03T01:16:11;7.73;;;6.70;;
8279;SDS011;8335;42.646;23.380;2022-09-03T01:18:48;9.50;;;6.82;;
8279;SDS011;8335;42.646;23.380;2022-09-03T01:21:29;10.07;;;6.73;;
8279;SDS011;8335;42.646;23.380;2022-09-03T01:24:21;9.90;;;6.37;;
8279;SDS011;8335;42.646;23.380;2022-09-03T01:27:20;8.37;;;6.80;;
8279;SDS011;8335;42.646;23.380;2022-09-03T01:30:03;10.40;;;6.70;;
8279;SDS011;8335;42.646;23.380;2022-09-03T01:32:35;7.97;;;6.60;;
8279;SDS011;8335;42.646;23.380;2022-09-03T01:35:10;8.00;;;6.17;;
8279;SDS011;8335;42.646;23.380;2022-09-03T01:37:52;8.33;;;6.40;;
8279;SDS011;8335;42.646;23.380;2022-09-03T01:40:32;7.97;;;6.53;;
8279;SDS011;8335;42.646;23.380;2022-09-03T01:43:14;10.13;;;6.20;;
8279;SDS011;8335;42.646;23.380;2022-09-03T01:45:52;8.07;;;6.83;;
8279;SDS011;8335;42.646;23.380;2022-09-03T01:48:31;7.43;;;5.80;;
8279;SDS011;8335;42.646;23.380;2022-09-03T01:51:17;8.50;;;5.90;;
8279;SDS011;8335;42.646;23.380;2022-09-03T01:53:59;16.83;;;7.40;;
8279;SDS011;8335;42.646;23.380;2022-09-03T01:56:42;8.37;;;6.60;;
8279;SDS011;8335;42.646;23.380;2022-09-03T01:59:25;9.33;;;6.70;;
8279;SDS011;8335;42.646;23.380;2022-09-03T02:01:58;12.17;;;6.67;;
8279;SDS011;8335;42.646;23.380;2022-09-03T02:04:30;8.32;;;7.03;;
8279;SDS011;8335;42.646;23.380;2022-09-03T02:06:58;8.57;;;6.38;;
8279;SDS011;8335;42.646;23.380;2022-09-03T02:09:26;9.20;;;6.07;;
8279;SDS011;8335;42.646;23.380;2022-09-03T02:11:54;8.57;;;6.70;;
8279;SDS011;8335;42.646;23.380;2022-09-03T02:14:24;8.43;;;6.53;;
8279;SDS011;8335;42.646;23.380;2022-09-03T02:16:52;8.20;;;6.67;;
8279;SDS011;8335;42.646;23.380;2022-09-03T02:19:25;8.43;;;6.20;;
8279;SDS011;8335;42.646;23.380;2022-09-03T02:21:53;9.60;;;6.93;;
8279;SDS011;8335;42.646;23.380;2022-09-03T02:24:21;8.77;;;6.23;;
8279;SDS011;8335;42.646;23.380;2022-09-03T02:26:49;7.80;;;6.10;;
8279;SDS011;8335;42.646;23.380;2022-09-03T02:29:16;8.50;;;6.10;;
8279;SDS011;8335;42.646;23.380;2022-09-03T02:31:43;6.67;;;5.67;;
8279;SDS011;8335;42.646;23.380;2022-09-03T02:34:10;8.00;;;6.40;;
8279;SDS011;8335;42.646;23.380;2022-09-03T02:36:40;10.55;;;6.55;;
8279;SDS011;8335;42.646;23.380;2022-09-03T02:39:10;9.43;;;7.20;;
8279;SDS011;8335;42.646;23.380;2022-09-03T02:41:36;7.50;;;6.35;;
8279;SDS011;8335;42.646;23.380;2022-09-03T02:44:04;9.37;;;6.87;;
8279;SDS011;8335;42.646;23.380;2022-09-03T02:46:37;8.15;;;6.72;;
8279;SDS011;8335;42.646;23.380;2022-09-03T02:49:06;7.60;;;6.20;;
8279;SDS011;8335;42.646;23.380;2022-09-03T02:51:34;9.07;;;6.43;;
8279;SDS011;8335;42.646;23.380;2022-09-03T02:54:03;8.97;;;6.47;;
8279;SDS011;8335;42.646;23.380;2022-09-03T02:56:30;8.67;;;6.87;;
8279;SDS011;8335;42.646;23.380;2022-09-03T02:58:57;12.57;;;6.90;;
8279;SDS011;8335;42.646;23.380;2022-09-03T03:01:24;7.80;;;6.37;;
8279;SDS011;8335;42.646;23.380;2022-09-03T03:03:51;9.37;;;7.60;;
8279;SDS011;8335;42.646;23.380;2022-09-03T03:06:18;9.80;;;6.80;;
8279;SDS011;8335;42.646;23.380;2022-09-03T03:08:45;11.07;;;7.40;;
8279;SDS011;8335;42.646;23.380;2022-09-03T03:11:14;8.70;;;6.80;;
8279;SDS011;8335;42.646;23.380;2022-09-03T03:13:42;9.47;;;7.07;;
8279;SDS011;8335;42.646;23.380;2022-09-03T03:16:11;9.90;;;7.70;;
8279;SDS011;8335;42.646;23.380;2022-09-03T03:18:39;7.97;;;6.68;;
8279;SDS011;8335;42.646;23.380;2022-09-03T03:21:06;10.30;;;6.87;;
8279;SDS011;8335;42.646;23.380;2022-09-03T03:23:34;8.00;;;6.60;;
8279;SDS011;8335;42.646;23.380;2022-09-03T03:26:03;8.57;;;6.37;;
8279;SDS011;8335;42.646;23.380;2022-09-03T03:28:33;8.93;;;7.03;;
8279;SDS011;8335;42.646;23.380;2022-09-03T03:31:04;8.27;;;6.73;;
8279;SDS011;8335;42.646;23.380;2022-09-03T03:33:32;9.47;;;7.40;;
8279;SDS011;8335;42.646;23.380;2022-09-03T03:36:02;9.17;;;6.87;;
8279;SDS011;8335;42.646;23.380;2022-09-03T03:38:30;9.03;;;6.60;;
8279;SDS011;8335;42.646;23.380;2022-09-03T03:40:56;8.13;;;6.47;;
8279;SDS011;8335;42.646;23.380;2022-09-03T03:43:23;9.53;;;7.37;;
8279;SDS011;8335;42.646;23.380;2022-09-03T03:45:56;7.50;;;5.90;;
8279;SDS011;8335;42.646;23.380;2022-09-03T03:48:23;10.23;;;6.80;;
8279;SDS011;8335;42.646;23.380;2022-09-03T03:50:50;8.30;;;6.70;;
8279;SDS011;8335;42.646;23.380;2022-09-03T03:53:17;9.17;;;7.13;;
8279;SDS011;8335;42.646;23.380;2022-09-03T03:55:52;9.27;;;6.60;;
8279;SDS011;8335;42.646;23.380;2022-09-03T03:58:20;10.10;;;7.37;;
8279;SDS011;8335;42.646;23.380;2022-09-03T04:00:47;8.03;;;7.00;;
8279;SDS011;8335;42.646;23.380;2022-09-03T04:03:15;9.80;;;6.93;;
8279;SDS011;8335;42.646;23.380;2022-09-03T04:05:42;10.27;;;6.87;;
8279;SDS011;8335;42.646;23.380;2022-09-03T04:08:08;8.63;;;6.90;;
8279;SDS011;8335;42.646;23.380;2022-09-03T04:10:35;10.47;;;6.90;;
8279;SDS011;8335;42.646;23.380;2022-09-03T04:13:02;9.97;;;6.80;;
8279;SDS011;8335;42.646;23.380;2022-09-03T04:15:29;8.37;;;6.50;;
8279;SDS011;8335;42.646;23.380;2022-09-03T04:17:55;7.87;;;6.13;;
8279;SDS011;8335;42.646;23.380;2022-09-03T04:20:23;9.57;;;6.33;;
8279;SDS011;8335;42.646;23.380;2022-09-03T04:22:50;8.07;;;6.37;;
8279;SDS011;8335;42.646;23.380;2022-09-03T04:25:17;11.97;;;7.03;;
8279;SDS011;8335;42.646;23.380;2022-09-03T04:27:44;9.70;;;6.93;;
8279;SDS011;8335;42.646;23.380;2022-09-03T04:30:11;8.57;;;6.73;;
8279;SDS011;8335;42.646;23.380;2022-09-03T04:32:38;8.83;;;6.53;;
8279;SDS011;8335;42.646;23.380;2022-09-03T04:35:20;8.50;;;6.40;;
8279;SDS011;8335;42.646;23.380;2022-09-03T04:37:49;8.93;;;6.07;;
8279;SDS011;8335;42.646;23.380;2022-09-03T04:40:19;9.13;;;6.90;;
8279;SDS011;8335;42.646;23.380;2022-09-03T04:42:46;9.73;;;6.90;;
8279;SDS011;8335;42.646;23.380;2022-09-03T04:45:13;8.80;;;6.53;;
8279;SDS011;8335;42.646;23.380;2022-09-03T04:47:42;8.57;;;7.17;;
8279;SDS011;8335;42.646;23.380;2022-09-03T04:50:10;9.00;;;6.30;;
8279;SDS011;8335;42.646;23.380;2022-09-03T04:52:37;10.43;;;6.63;;
8279;SDS011;8335;42.646;23.380;2022-09-03T04:55:06;8.20;;;6.28;;
8279;SDS011;8335;42.646;23.380;2022-09-03T04:57:34;8.77;;;6.97;;
8279;SDS011;8335;42.646;23.380;2022-09-03T05:00:02;8.10;;;6.80;;
8279;SDS011;8335;42.646;23.380;2022-09-03T05:02:30;8.83;;;6.33;;
8279;SDS011;8335;42.646;23.380;2022-09-03T05:04:57;9.57;;;6.57;;
8279;SDS011;8335;42.646;23.380;2022-09-03T05:07:23;9.63;;;6.70;;
8279;SDS011;8335;42.646;23.380;2022-09-03T05:09:52;7.55;;;6.40;;
8279;SDS011;8335;42.646;23.380;2022-09-03T05:12:20;8.10;;;6.50;;
8279;SDS011;8335;42.646;23.380;2022-09-03T05:14:47;9.60;;;6.67;;
8279;SDS011;8335;42.646;23.380;2022-09-03T05:17:14;8.70;;;7.10;;
8279;SDS011;8335;42.646;23.380;2022-09-03T05:19:40;7.20;;;6.07;;
8279;SDS011;8335;42.646;23.380;2022-09-03T05:22:07;8.02;;;6.00;;
8279;SDS011;8335;42.646;23.380;2022-09-03T05:24:34;10.13;;;6.18;;
8279;SDS011;8335;42.646;23.380;2022-09-03T05:27:01;10.67;;;6.47;;
8279;SDS011;8335;42.646;23.380;2022-09-03T05:29:29;8.00;;;6.37;;
8279;SDS011;8335;42.646;23.380;2022-09-03T05:31:55;9.00;;;6.45;;
8279;SDS011;8335;42.646;23.380;2022-09-03T05:34:23;8.50;;;6.43;;
8279;SDS011;8335;42.646;23.380;2022-09-03T05:36:49;9.60;;;6.10;;
8279;SDS011;8335;42.646;23.380;2022-09-03T05:39:17;8.45;;;6.55;;
8279;SDS011;8335;42.646;23.380;2022-09-03T05:41:43;8.40;;;6.13;;
8279;SDS011;8335;42.646;23.380;2022-09-03T05:44:10;8.25;;;6.50;;
8279;SDS011;8335;42.646;23.380;2022-09-03T05:46:38;9.27;;;6.47;;
8279;SDS011;8335;42.646;23.380;2022-09-03T05:49:05;8.38;;;6.53;;
8279;SDS011;8335;42.646;23.380;2022-09-03T05:51:33;7.80;;;6.18;;
8279;SDS011;8335;42.646;23.380;2022-09-03T05:54:01;8.55;;;6.13;;
8279;SDS011;8335;42.646;23.380;2022-09-03T05:56:28;9.50;;;7.03;;
8279;SDS011;8335;42.646;23.380;2022-09-03T05:58:57;8.88;;;5.95;;
8279;SDS011;8335;42.646;23.380;2022-09-03T06:01:26;7.88;;;6.82;;
8279;SDS011;8335;42.646;23.380;2022-09-03T06:03:56;6.93;;;5.80;;
8279;SDS011;8335;42.646;23.380;2022-09-03T06:06:25;9.00;;;6.70;;
8279;SDS011;8335;42.646;23.380;2022-09-03T06:08:53;9.13;;;6.15;;
8279;SDS011;8335;42.646;23.380;2022-09-03T06:11:20;7.30;;;6.10;;
8279;SDS011;8335;42.646;23.380;2022-09-03T06:13:47;8.02;;;6.28;;
8279;SDS011;8335;42.646;23.380;2022-09-03T06:16:14;7.25;;;5.72;;
8279;SDS011;8335;42.646;23.380;2022-09-03T06:18:41;6.30;;;5.50;;
8279;SDS011;8335;42.646;23.380;2022-09-03T06:21:09;9.80;;;7.43;;
8279;SDS011;8335;42.646;23.380;2022-09-03T06:23:36;8.98;;;6.55;;
8279;SDS011;8335;42.646;23.380;2022-09-03T06:26:03;7.82;;;6.05;;
8279;SDS011;8335;42.646;23.380;2022-09-03T06:28:31;9.77;;;6.40;;
8279;SDS011;8335;42.646;23.380;2022-09-03T06:30:59;9.98;;;6.20;;
8279;SDS011;8335;42.646;23.380;2022-09-03T06:33:26;10.05;;;6.38;;
8279;SDS011;8335;42.646;23.380;2022-09-03T06:35:54;7.65;;;6.18;;
8279;SDS011;8335;42.646;23.380;2022-09-03T06:38:24;8.35;;;6.57;;
8279;SDS011;8335;42.646;23.380;2022-09-03T06:40:52;8.15;;;6.00;;
8279;SDS011;8335;42.646;23.380;2022-09-03T06:43:20;7.28;;;6.32;;
8279;SDS011;8335;42.646;23.380;2022-09-03T06:45:54;6.85;;;5.88;;
8279;SDS011;8335;42.646;23.380;2022-09-03T06:48:21;9.65;;;6.60;;
8279;SDS011;8335;42.646;23.380;2022-09-03T06:50:52;8.30;;;6.50;;
8279;SDS011;8335;42.646;23.380;2022-09-03T06:53:21;8.60;;;7.63;;
8279;SDS011;8335;42.646;23.380;2022-09-03T06:55:53;8.63;;;6.35;;
8279;SDS011;8335;42.646;23.380;2022-09-03T06:58:21;7.68;;;6.80;;
8279;SDS011;8335;42.646;23.380;2022-09-03T07:00:48;7.07;;;6.20;;
8279;SDS011;8335;42.646;23.380;2022-09-03T07:03:17;7.90;;;5.88;;
8279;SDS011;8335;42.646;23.380;2022-09-03T07:05:44;7.30;;;6.22;;
8279;SDS011;8335;42.646;23.380;2022-09-03T07:08:10;9.38;;;6.72;;
8279;SDS011;8335;42.646;23.380;2022-09-03T07:10:38;8.73;;;6.72;;
8279;SDS011;8335;42.646;23.380;2022-09-03T07:13:07;8.35;;;6.60;;
8279;SDS011;8335;42.646;23.380;2022-09-03T07:15:33;8.65;;;7.00;;
8279;SDS011;8335;42.646;23.380;2022-09-03T07:18:02;7.78;;;6.63;;
8279;SDS011;8335;42.646;23.380;2022-09-03T07:20:29;7.47;;;6.65;;
8279;SDS011;8335;42.646;23.380;2022-09-03T07:22:56;6.80;;;6.10;;
8279;SDS011;8335;42.646;23.380;2022-09-03T07:25:23;6.18;;;5.55;;
8279;SDS011;8335;42.646;23.380;2022-09-03T07:27:51;6.20;;;5.60;;
8279;SDS011;8335;42.646;23.380;2022-09-03T07:30:18;6.18;;;5.50;;
8279;SDS011;8335;42.646;23.380;2022-09-03T07:32:45;11.25;;;6.18;;
8279;SDS011;8335;42.646;23.380;2022-09-03T07:35:15;13.07;;;6.25;;
8279;SDS011;8335;42.646;23.380;2022-09-03T07:37:42;8.68;;;6.40;;
8279;SDS011;8335;42.646;23.380;2022-09-03T07:40:09;6.80;;;6.10;;
8279;SDS011;8335;42.646;23.380;2022-09-03T07:42:38;6.82;;;5.50;;
8279;SDS011;8335;42.646;23.380;2022-09-03T07:45:07;8.07;;;6.35;;
8279;SDS011;8335;42.646;23.380;2022-09-03T07:47:36;7.05;;;5.60;;
8279;SDS011;8335;42.646;23.380;2022-09-03T07:50:03;7.60;;;6.00;;
8279;SDS011;8335;42.646;23.380;2022-09-03T07:52:30;5.60;;;5.10;;
8279;SDS011;8335;42.646;23.380;2022-09-03T07:54:57;6.60;;;5.57;;
8279;SDS011;8335;42.646;23.380;2022-09-03T07:57:24;5.20;;;4.70;;
8279;SDS011;8335;42.646;23.380;2022-09-03T07:59:51;5.85;;;5.35;;
8279;SDS011;8335;42.646;23.380;2022-09-03T08:02:19;5.57;;;4.93;;
8279;SDS011;8335;42.646;23.380;2022-09-03T08:04:46;7.90;;;4.75;;
8279;SDS011;8335;42.646;23.380;2022-09-03T08:07:12;6.13;;;4.55;;
8279;SDS011;8335;42.646;23.380;2022-09-03T08:09:39;5.20;;;4.72;;
8279;SDS011;8335;42.646;23.380;2022-09-03T08:12:06;5.80;;;4.70;;
8279;SDS011;8335;42.646;23.380;2022-09-03T08:14:33;5.82;;;4.68;;
8279;SDS011;8335;42.646;23.380;2022-09-03T08:17:00;5.00;;;4.38;;
8279;SDS011;8335;42.646;23.380;2022-09-03T08:19:28;5.38;;;4.88;;
8279;SDS011;8335;42.646;23.380;2022-09-03T08:21:54;6.15;;;4.85;;
8279;SDS011;8335;42.646;23.380;2022-09-03T08:24:21;5.63;;;5.10;;
8279;SDS011;8335;42.646;23.380;2022-09-03T08:26:50;5.70;;;5.20;;
8279;SDS011;8335;42.646;23.380;2022-09-03T08:29:17;6.07;;;5.10;;
8279;SDS011;8335;42.646;23.380;2022-09-03T08:31:44;6.03;;;4.85;;
8279;SDS011;8335;42.646;23.380;2022-09-03T08:34:11;7.60;;;5.38;;
8279;SDS011;8335;42.646;23.380;2022-09-03T08:36:40;6.43;;;5.30;;
8279;SDS011;8335;42.646;23.380;2022-09-03T08:39:07;8.15;;;5.47;;
8279;SDS011;8335;42.646;23.380;2022-09-03T08:41:38;6.95;;;4.50;;
8279;SDS011;8335;42.646;23.380;2022-09-03T08:44:22;5.80;;;5.13;;
8279;SDS011;8335;42.646;23.380;2022-09-03T08:46:54;6.15;;;4.55;;
8279;SDS011;8335;42.646;23.380;2022-09-03T08:49:26;6.05;;;4.70;;
8279;SDS011;8335;42.646;23.380;2022-09-03T08:52:04;6.03;;;4.53;;
8279;SDS011;8335;42.646;23.380;2022-09-03T08:54:34;5.20;;;4.68;;
8279;SDS011;8335;42.646;23.380;2022-09-03T08:57:02;5.45;;;4.80;;
8279;SDS011;8335;42.646;23.380;2022-09-03T08:59:29;6.18;;;4.70;;
8279;SDS011;8335;42.646;23.380;2022-09-03T09:01:59;9.15;;;4.70;;
8279;SDS011;8335;42.646;23.380;2022-09-03T09:04:45;8.45;;;5.65;;
8279;SDS011;8335;42.646;23.380;2022-09-03T09:07:26;6.40;;;5.50;;
8279;SDS011;8335;42.646;23.380;2022-09-03T09:09:59;5.57;;;5.07;;
8279;SDS011;8335;42.646;23.380;2022-09-03T09:12:37;5.88;;;5.30;;
8279;SDS011;8335;42.646;23.380;2022-09-03T09:15:16;5.53;;;5.00;;
8279;SDS011;8335;42.646;23.380;2022-09-03T09:17:55;8.02;;;5.57;;
8279;SDS011;8335;42.646;23.380;2022-09-03T09:20:32;5.32;;;4.82;;
8279;SDS011;8335;42.646;23.380;2022-09-03T09:23:09;5.32;;;4.85;;
8279;SDS011;8335;42.646;23.380;2022-09-03T09:25:41;6.25;;;5.65;;
8279;SDS011;8335;42.646;23.380;2022-09-03T09:28:16;6.20;;;5.60;;
8279;SDS011;8335;42.646;23.380;2022-09-03T09:30:44;8.40;;;5.07;;
8279;SDS011;8335;42.646;23.380;2022-09-03T09:33:12;5.50;;;4.88;;
8279;SDS011;8335;42.646;23.380;2022-09-03T09:35:39;5.20;;;4.70;;
8279;SDS011;8335;42.646;23.380;2022-09-03T09:38:08;5.35;;;4.78;;
8279;SDS011;8335;42.646;23.380;2022-09-03T09:40:37;6.82;;;4.95;;
8279;SDS011;8335;42.646;23.380;2022-09-03T09:43:06;5.40;;;4.90;;
8279;SDS011;8335;42.646;23.380;2022-09-03T09:45:40;6.07;;;4.80;;
8279;SDS011;8335;42.646;23.380;2022-09-03T09:48:12;5.00;;;4.60;;
8279;SDS011;8335;42.646;23.380;2022-09-03T09:50:44;4.97;;;4.47;;
8279;SDS011;8335;42.646;23.380;2022-09-03T09:53:12;4.75;;;4.35;;
8279;SDS011;8335;42.646;23.380;2022-09-03T09:55:52;4.75;;;4.35;;
8279;SDS011;8335;42.646;23.380;2022-09-03T09:58:20;6.90;;;4.80;;
8279;SDS011;8335;42.646;23.380;2022-09-03T10:00:55;5.00;;;4.60;;
8279;SDS011;8335;42.646;23.380;2022-09-03T10:03:24;5.10;;;4.60;;
8279;SDS011;8335;42.646;23.380;2022-09-03T10:06:00;5.18;;;4.68;;
8279;SDS011;8335;42.646;23.380;2022-09-03T10:08:51;4.63;;;4.22;;
8279;SDS011;8335;42.646;23.380;2022-09-03T10:11:19;4.93;;;4.43;;
8279;SDS011;8335;42.646;23.380;2022-09-03T10:13:49;5.03;;;4.60;;
8279;SDS011;8335;42.646;23.380;2022-09-03T10:16:19;5.90;;;4.85;;
8279;SDS011;8335;42.646;23.380;2022-09-03T10:18:52;5.22;;;4.72;;
8279;SDS011;8335;42.646;23.380;2022-09-03T10:21:28;5.18;;;4.68;;
8279;SDS011;8335;42.646;23.380;2022-09-03T10:24:01;5.00;;;4.50;;
8279;SDS011;8335;42.646;23.380;2022-09-03T10:26:41;5.50;;;4.30;;
8279;SDS011;8335;42.646;23.380;2022-09-03T10:29:10;5.32;;;4.82;;
8279;SDS011;8335;42.646;23.380;2022-09-03T10:31:44;4.75;;;4.35;;
8279;SDS011;8335;42.646;23.380;2022-09-03T10:34:24;5.70;;;4.75;;
8279;SDS011;8335;42.646;23.380;2022-09-03T10:36:59;5.40;;;4.72;;
8279;SDS011;8335;42.646;23.380;2022-09-03T10:39:38;4.90;;;4.35;;
8279;SDS011;8335;42.646;23.380;2022-09-03T10:42:17;5.43;;;4.93;;
8279;SDS011;8335;42.646;23.380;2022-09-03T10:44:57;5.00;;;4.50;;
8279;SDS011;8335;42.646;23.380;2022-09-03T10:47:36;5.32;;;4.78;;
8279;SDS011;8335;42.646;23.380;2022-09-03T10:50:24;4.82;;;3.80;;
8279;SDS011;8335;42.646;23.380;2022-09-03T10:52:59;7.90;;;4.65;;
8279;SDS011;8335;42.646;23.380;2022-09-03T10:55:40;5.82;;;5.22;;
8279;SDS011;8335;42.646;23.380;2022-09-03T10:58:23;5.32;;;4.82;;
8279;SDS011;8335;42.646;23.380;2022-09-03T11:01:02;4.88;;;4.40;;
8279;SDS011;8335;42.646;23.380;2022-09-03T11:03:42;5.30;;;4.38;;
8279;SDS011;8335;42.646;23.380;2022-09-03T11:06:14;5.47;;;4.72;;
8279;SDS011;8335;42.646;23.380;2022-09-03T11:08:50;11.40;;;4.40;;
8279;SDS011;8335;42.646;23.380;2022-09-03T11:11:25;9.43;;;4.72;;
8279;SDS011;8335;42.646;23.380;2022-09-03T11:13:58;4.95;;;4.45;;
8279;SDS011;8335;42.646;23.380;2022-09-03T11:16:32;5.13;;;4.65;;
8279;SDS011;8335;42.646;23.380;2022-09-03T11:19:04;5.32;;;4.80;;
8279;SDS011;8335;42.646;23.380;2022-09-03T11:21:32;6.47;;;5.05;;
8279;SDS011;8335;42.646;23.380;2022-09-03T11:24:07;5.60;;;5.03;;
8279;SDS011;8335;42.646;23.380;2022-09-03T11:26:39;4.68;;;4.28;;
8279;SDS011;8335;42.646;23.380;2022-09-03T11:29:10;4.80;;;4.32;;
8279;SDS011;8335;42.646;23.380;2022-09-03T11:31:44;5.68;;;4.80;;
8279;SDS011;8335;42.646;23.380;2022-09-03T11:34:25;4.70;;;4.30;;
8279;SDS011;8335;42.646;23.380;2022-09-03T11:37:03;4.65;;;4.20;;
8279;SDS011;8335;42.646;23.380;2022-09-03T11:39:33;4.30;;;3.60;;
8279;SDS011;8335;42.646;23.380;2022-09-03T11:42:11;4.60;;;4.20;;
8279;SDS011;8335;42.646;23.380;2022-09-03T11:44:45;4.55;;;4.10;;
8279;SDS011;8335;42.646;23.380;2022-09-03T11:47:20;4.20;;;3.83;;
8279;SDS011;8335;42.646;23.380;2022-09-03T11:49:49;5.65;;;4.60;;
8279;SDS011;8335;42.646;23.380;2022-09-03T11:52:26;5.55;;;4.50;;
8279;SDS011;8335;42.646;23.380;2022-09-03T11:54:56;5.80;;;4.38;;
8279;SDS011;8335;42.646;23.380;2022-09-03T11:57:26;5.22;;;4.40;;
8279;SDS011;8335;42.646;23.380;2022-09-03T12:00:06;4.88;;;4.45;;
8279;SDS011;8335;42.646;23.380;2022-09-03T12:02:40;5.57;;;4.60;;
8279;SDS011;8335;42.646;23.380;2022-09-03T12:05:13;5.22;;;4.55;;
8279;SDS011;8335;42.646;23.380;2022-09-03T12:08:01;6.82;;;4.90;;
8279;SDS011;8335;42.646;23.380;2022-09-03T12:10:38;5.50;;;4.90;;
8279;SDS011;8335;42.646;23.380;2022-09-03T12:13:17;4.80;;;4.30;;
8279;SDS011;8335;42.646;23.380;2022-09-03T12:16:05;5.03;;;4.53;;
8279;SDS011;8335;42.646;23.380;2022-09-03T12:18:42;6.93;;;4.70;;
8279;SDS011;8335;42.646;23.380;2022-09-03T12:21:15;4.55;;;4.15;;
8279;SDS011;8335;42.646;23.380;2022-09-03T12:23:43;4.85;;;4.40;;
8279;SDS011;8335;42.646;23.380;2022-09-03T12:26:12;4.57;;;4.18;;
8279;SDS011;8335;42.646;23.380;2022-09-03T12:28:42;5.35;;;4.53;;
8279;SDS011;8335;42.646;23.380;2022-09-03T12:31:14;5.00;;;4.50;;
8279;SDS011;8335;42.646;23.380;2022-09-03T12:33:50;4.45;;;4.05;;
8279;SDS011;8335;42.646;23.380;2022-09-03T12:36:20;4.60;;;4.20;;
8279;SDS011;8335;42.646;23.380;2022-09-03T12:38:47;3.97;;;3.67;;
8279;SDS011;8335;42.646;23.380;2022-09-03T12:41:21;4.85;;;4.15;;
8279;SDS011;8335;42.646;23.380;2022-09-03T12:43:52;6.95;;;4.75;;
8279;SDS011;8335;42.646;23.380;2022-09-03T12:46:24;7.13;;;5.63;;
8279;SDS011;8335;42.646;23.380;2022-09-03T12:48:55;5.80;;;5.20;;
8279;SDS011;8335;42.646;23.380;2022-09-03T12:51:30;8.93;;;5.32;;
8279;SDS011;8335;42.646;23.380;2022-09-03T12:53:58;7.18;;;4.95;;
8279;SDS011;8335;42.646;23.380;2022-09-03T12:56:26;5.70;;;5.20;;
8279;SDS011;8335;42.646;23.380;2022-09-03T12:58:59;8.45;;;5.50;;
8279;SDS011;8335;42.646;23.380;2022-09-03T13:01:31;6.40;;;5.80;;
8279;SDS011;8335;42.646;23.380;2022-09-03T13:04:01;6.75;;;6.03;;
8279;SDS011;8335;42.646;23.380;2022-09-03T13:06:32;5.60;;;5.03;;
8279;SDS011;8335;42.646;23.380;2022-09-03T13:09:14;5.22;;;4.13;;
8279;SDS011;8335;42.646;23.380;2022-09-03T13:11:46;5.80;;;4.93;;
8279;SDS011;8335;42.646;23.380;2022-09-03T13:14:14;5.15;;;4.68;;
8279;SDS011;8335;42.646;23.380;2022-09-03T13:16:46;5.43;;;4.57;;
8279;SDS011;8335;42.646;23.380;2022-09-03T13:19:29;5.40;;;4.22;;
8279;SDS011;8335;42.646;23.380;2022-09-03T13:22:11;5.90;;;4.45;;
8279;SDS011;8335;42.646;23.380;2022-09-03T13:27:41;4.65;;;4.20;;
8279;SDS011;8335;42.646;23.380;2022-09-03T13:30:18;4.55;;;4.15;;
8279;SDS011;8335;42.646;23.380;2022-09-03T13:32:50;5.10;;;4.55;;
8279;SDS011;8335;42.646;23.380;2022-09-03T13:35:29;9.98;;;4.80;;
8279;SDS011;8335;42.646;23.380;2022-09-03T13:38:04;6.05;;;4.20;;
8279;SDS011;8335;42.646;23.380;2022-09-03T13:40:40;5.78;;;4.03;;
8279;SDS011;8335;42.646;23.380;2022-09-03T13:43:21;4.18;;;3.80;;
8279;SDS011;8335;42.646;23.380;2022-09-03T13:45:58;4.78;;;3.80;;
8279;SDS011;8335;42.646;23.380;2022-09-03T13:48:31;4.40;;;4.00;;
8279;SDS011;8335;42.646;23.380;2022-09-03T13:51:21;4.50;;;4.10;;
8279;SDS011;8335;42.646;23.380;2022-09-03T13:53:58;3.78;;;3.38;;
8279;SDS011;8335;42.646;23.380;2022-09-03T13:56:35;4.00;;;3.28;;
8279;SDS011;8335;42.646;23.380;2022-09-03T13:59:16;6.32;;;3.15;;
8279;SDS011;8335;42.646;23.380;2022-09-03T14:02:06;3.50;;;3.20;;
8279;SDS011;8335;42.646;23.380;2022-09-03T14:04:47;4.07;;;3.58;;
8279;SDS011;8335;42.646;23.380;2022-09-03T14:07:24;3.67;;;3.28;;
8279;SDS011;8335;42.646;23.380;2022-09-03T14:10:00;3.22;;;2.92;;
8279;SDS011;8335;42.646;23.380;2022-09-03T14:12:35;6.70;;;3.75;;
8279;SDS011;8335;42.646;23.380;2022-09-03T14:15:14;3.88;;;3.58;;
8279;SDS011;8335;42.646;23.380;2022-09-03T14:17:47;3.63;;;3.33;;
8279;SDS011;8335;42.646;23.380;2022-09-03T14:20:22;3.67;;;3.03;;
8279;SDS011;8335;42.646;23.380;2022-09-03T14:22:52;5.10;;;3.63;;
8279;SDS011;8335;42.646;23.380;2022-09-03T14:25:25;5.25;;;3.45;;
8279;SDS011;8335;42.646;23.380;2022-09-03T14:27:52;5.55;;;3.60;;
8279;SDS011;8335;42.646;23.380;2022-09-03T14:30:32;4.47;;;4.03;;
8279;SDS011;8335;42.646;23.380;2022-09-03T14:33:11;5.10;;;3.75;;
8279;SDS011;8335;42.646;23.380;2022-09-03T14:35:50;4.18;;;3.78;;
8279;SDS011;8335;42.646;23.380;2022-09-03T14:41:27;5.47;;;4.40;;
8279;SDS011;8335;42.646;23.380;2022-09-03T14:44:21;4.18;;;3.78;;
8279;SDS011;8335;42.646;23.380;2022-09-03T14:47:02;4.90;;;4.20;;
8279;SDS011;8335;42.646;23.380;2022-09-03T14:49:48;5.55;;;4.95;;
8279;SDS011;8335;42.646;23.380;2022-09-03T14:52:32;4.45;;;4.05;;
8279;SDS011;8335;42.646;23.380;2022-09-03T14:55:20;7.68;;;4.15;;
8279;SDS011;8335;42.646;23.380;2022-09-03T14:58:00;4.72;;;4.07;;
8279;SDS011;8335;42.646;23.380;2022-09-03T15:00:48;5.07;;;4.20;;
8279;SDS011;8335;42.646;23.380;2022-09-03T15:06:45;4.45;;;4.05;;
8279;SDS011;8335;42.646;23.380;2022-09-03T15:09:26;4.25;;;3.83;;
8279;SDS011;8335;42.646;23.380;2022-09-03T15:11:58;5.88;;;4.20;;
8279;SDS011;8335;42.646;23.380;2022-09-03T15:14:29;5.38;;;4.60;;
8279;SDS011;8335;42.646;23.380;2022-09-03T15:17:16;4.22;;;3.83;;
8279;SDS011;8335;42.646;23.380;2022-09-03T15:20:02;4.40;;;4.00;;
8279;SDS011;8335;42.646;23.380;2022-09-03T15:25:53;4.63;;;4.22;;
8279;SDS011;8335;42.646;23.380;2022-09-03T15:28:36;4.45;;;4.05;;
8279;SDS011;8335;42.646;23.380;2022-09-03T15:31:15;8.02;;;4.20;;
8279;SDS011;8335;42.646;23.380;2022-09-03T15:33:49;4.55;;;4.13;;
8279;SDS011;8335;42.646;23.380;2022-09-03T15:36:24;4.13;;;3.72;;
8279;SDS011;8335;42.646;23.380;2022-09-03T15:39:01;4.60;;;4.00;;
8279;SDS011;8335;42.646;23.380;2022-09-03T15:41:39;5.95;;;4.05;;
8279;SDS011;8335;42.646;23.380;2022-09-03T15:44:10;4.70;;;4.20;;
8279;SDS011;8335;42.646;23.380;2022-09-03T15:46:49;6.25;;;4.40;;